Mosca, CO (81146)

2:53 PM MDT on October 01, 2016 (GMT -0600)
Hooper | | Change Station

Elev 7559 ft 37.73 °N, 105.87 °W | Updated 3 seconds ago

Clear
Clear
72.1 °F
Feels Like 76 °F
N
7.0
Wind Variable Wind from SW
Gusts 12.0 mph

Today
High -- | Low -- °F
--% Chance of Precip.
Yesterday
High -- | Low -- °F
Precip. -- in
Pressure 30.03 in
Visibility 10.0 miles
Clouds Clear
Heat Index 76 °F
Dew Point 35 °F
Humidity 26%
Rainfall 0.00 in
Snow Depth Not available.
6:58 AM 6:45 PM
New Moon, 1% visible
METAR KALS 011952Z AUTO VRB03KT 10SM CLR 19/02 A3024 RMK AO2 SLP169 T01940017
Pressure 30.03 in
Visibility 10.0 miles
Clouds Clear
Heat Index 76 °F
Dew Point 35 °F
Humidity 26%
Rainfall 0.00 in
Snow Depth Not available.
6:58 AM 6:45 PM
New Moon, 1% visible
METAR KALS 011952Z AUTO VRB03KT 10SM CLR 19/02 A3024 RMK AO2 SLP169 T01940017

10-Day Weather Forecast

Almanac

Astronomy

Oct. 01, 2016 Rise Set
Actual Time
Civil Twilight
Nautical Twilight
Astronomical Twilight
Moon
Length of Visible Light
Length of Day
Tomorrow will be .
, % of the Moon is Illuminated

Today's Extremes

State Highs State Lows

Community

WunderPhotos

Upload Photos

1,943,017 photos uploaded!

WunderBlog® & News

Nearby

Air Quality

  Air Quality AQ Index Pollutant
Not available.

Snow Depth

Station Depth Elevation

Earthquake Activity

City Distance Mag. Time & Date
Minimum magnitude displayed is 2.5.

Coastal Water Temperatures

Place Temperature

Stations

Nearby Weather Stations

Station Location Temp. Windchill Dew Point Humidity Wind Precip. Elev Updated Type
                   

Watches & Warnings

There are currently no watches in effect.